Morena (449) Station Data

Red Flag Warning: No
Fire Weather Zone: 258
SDGE Region: Mountain Empire
Lat/Lon: 32.688/-116.512

Observations

Time Wind Speed/Gust Temp(F) RH Fuel Moist Fuel Temp(F) Dewpt(F) Tmax(F) Tmin(F) Accum Precip 10-min Precip SL Press(mb)
2/27 11:40pm 248 12 G 22 46° 100% - - 46° 48.3° 43.5° - - -
2/27 11:20pm 242 11 G 23 46° 100% - - 46° 48.3° 43.5° - - -
2/27 11:10pm 234 7 G 15 46° 100% - - 46° 48.3° 43.5° - - -
2/27 11:00pm 212 6 G 11 46° 100% - - 46° 48.3° 43.5° - - -
2/27 10:50pm 199 3 G 7 46° 100% - - 46° 48.3° 43.5° - - -
2/27 10:40pm 205 5 G 12 46° 100% - - 46° 48.3° 43.5° - - -
2/27 10:30pm 192 6 G 14 46° 100% - - 46° 48.3° 43.5° - - -
2/27 10:20pm 186 6 G 12 46° 100% - - 46° 48.3° 43.5° - - -
2/27 10:10pm 181 6 G 12 46° 100% - - 46° 48.3° 43.5° - - -
2/27 10:00pm 188 5 G 11 46° 100% - - 46° 48.3° 43.5° - - -
2/27 9:50pm 194 5 G 11 46° 100% - - 46° 48.3° 43.5° - - -
2/27 9:40pm 193 5 G 16 46° 100% - - 46° 48.3° 43.5° - - -
2/27 9:30pm 191 5 G 12 46° 100% - - 46° 48.3° 43.5° - - -
2/27 9:20pm 206 4 G 10 46° 100% - - 46° 48.3° 43.5° - - -
2/27 9:10pm 210 5 G 10 46° 100% - - 46° 48.3° 43.5° - - -
2/27 9:00pm 211 7 G 14 46° 100% - - 46° 48.3° 43.5° - - -
2/27 8:50pm 211 8 G 19 46° 100% - - 46° 48.3° 43.5° - - -
2/27 8:40pm 207 6 G 14 46° 100% - - 46° 48.3° 43.5° - - -
2/27 8:30pm 203 6 G 13 46° 100% - - 46° 48.3° 43.5° - - -
2/27 8:20pm 199 6 G 13 46° 100% - - 46° 48.3° 43.5° - - -
2/27 8:10pm 183 6 G 11 46° 100% - - 46° 48.3° 43.5° - - -
2/27 8:00pm 179 6 G 12 45° 100% - - 45° 48.3° 43.5° - - -
2/27 7:50pm 183 5 G 10 45° 100% - - 45° 48.3° 43.5° - - -
2/27 7:40pm 181 4 G 9 45° 100% - - 45° 48.3° 43.5° - - -
2/27 7:30pm 190 5 G 9 45° 100% - - 45° 48.3° 43.5° - - -
2/27 7:20pm 188 6 G 12 45° 100% - - 45° 48.3° 43.5° - - -
2/27 7:10pm 182 5 G 11 45° 100% - - 45° 48.3° 43.5° - - -
2/27 7:00pm 183 5 G 12 45° 100% - - 45° 48.3° 43.5° - - -
2/27 6:50pm 181 5 G 11 45° 100% - - 45° 48.3° 43.5° - - -
2/27 6:40pm 173 4 G 11 45° 100% - - 45° 48.3° 43.5° - - -
2/27 6:30pm 182 3 G 9 45° 100% - - 45° 48.3° 43.5° - - -
2/27 6:20pm 174 3 G 7 45° 100% - - 45° 48.3° 43.5° - - -
2/27 6:10pm 181 3 G 6 45° 100% - - 45° 48.3° 43.5° - - -
2/27 6:00pm 182 5 G 10 45° 100% - - 45° 48.3° 43.5° - - -
2/27 5:50pm 188 4 G 9 45° 100% - - 45° 48.3° 43.5° - - -
2/27 5:40pm 204 5 G 10 46° 100% - - 46° 48.3° 43.5° - - -
2/27 5:30pm 213 9 G 14 46° 100% - - 46° 48.3° 43.5° - - -
2/27 5:20pm 212 8 G 15 46° 100% - - 46° 48.3° 43.5° - - -
2/27 5:10pm 214 9 G 17 46° 100% - - 46° 48.3° 43.5° - - -
2/27 5:00pm 210 10 G 19 46° 100% - - 46° 48.3° 43.5° - - -
2/27 4:50pm 205 7 G 18 46° 100% - - 46° 48.3° 43.5° - - -
2/27 4:40pm 214 7 G 12 47° 100% - - 47° 48.3° 43.5° - - -
2/27 4:30pm 218 7 G 14 47° 100% - - 47° 48.3° 43.5° - - -
2/27 4:20pm 225 8 G 17 46° 100% - - 46° 48.3° 43.5° - - -
2/27 4:10pm 223 11 G 20 46° 100% - - 46° 48.3° 43.5° - - -
2/27 4:00pm 229 6 G 11 47° 100% - - 47° 48.3° 43.5° - - -
2/27 3:50pm 232 9 G 17 47° 100% - - 47° 48.3° 43.5° - - -
2/27 3:40pm 227 9 G 14 47° 100% - - 47° 48.3° 43.5° - - -
2/27 3:30pm 227 9 G 22 47° 100% - - 47° 48.3° 43.5° - - -
2/27 3:20pm 223 9 G 18 47° 100% - - 47° 48.3° 43.5° - - -
2/27 3:10pm 224 8 G 16 47° 100% - - 47° 48.3° 43.5° - - -
2/27 3:00pm 234 11 G 24 47° 100% - - 47° 48.3° 43.5° - - -
2/27 2:50pm 231 11 G 20 47° 100% - - 47° 48.3° 43.5° - - -
2/27 2:40pm 226 12 G 22 47° 100% - - 47° 48.3° 43.5° - - -
2/27 2:30pm 220 11 G 20 47° 100% - - 47° 48.3° 43.5° - - -
2/27 2:20pm 219 11 G 19 47° 100% - - 47° 48.3° 43.5° - - -
2/27 2:10pm 214 9 G 20 47° 100% - - 47° 48.3° 43.5° - - -
2/27 2:00pm 226 13 G 24 47° 100% - - 47° 48.3° 43.5° - - -
2/27 1:50pm 227 12 G 21 47° 100% - - 47° 48.3° 43.5° - - -
2/27 1:40pm 217 12 G 24 47° 100% - - 47° 48.3° 43.5° - - -
2/27 1:30pm 228 11 G 24 47° 100% - - 47° 48.3° 43.5° - - -
2/27 1:20pm 219 9 G 22 47° 100% - - 47° 48.3° 43.5° - - -
2/27 1:10pm 216 10 G 21 47° 100% - - 47° 48.3° 43.5° - - -
2/27 1:00pm 220 11 G 20 47° 100% - - 47° 48.3° 43.5° - - -
2/27 12:50pm 223 10 G 20 47° 100% - - 48° 48.3° 43.5° - - -
2/27 12:40pm 215 10 G 19 48° 100% - - 48° 48.3° 43.5° - - -
2/27 12:30pm 210 10 G 24 48° 100% - - 48° 48.3° 43.5° - - -
2/27 12:20pm 214 10 G 23 48° 100% - - 48° 48.3° 43.5° - - -
2/27 12:10pm 217 9 G 16 48° 100% - - 48° 48.3° 43.5° - - -
2/27 12:00pm 224 8 G 16 47° 100% - - 48° 48.3° 43.5° - - -
2/27 11:50am 230 8 G 17 48° 100% - - 48° 48.3° 43.5° - - -
2/27 11:40am 227 9 G 18 48° 100% - - 48° 48.3° 43.5° - - -
2/27 11:30am 224 11 G 21 48° 100% - - 48° 48.3° 43.5° - - -
2/27 11:20am 221 10 G 20 48° 100% - - 48° 48.3° 43.5° - - -
2/27 11:10am 224 8 G 17 48° 100% - - 48° 48.3° 43.5° - - -
2/27 11:00am 219 5 G 8 48° 100% - - 48° 48.3° 43.5° - - -
2/27 10:50am 222 7 G 14 48° 100% - - 48° 48.3° 43.5° - - -
2/27 10:40am 226 5 G 9 48° 100% - - 48° 48.3° 43.5° - - -
2/27 10:30am 217 8 G 15 48° 100% - - 48° 48.2° 43.5° - - -
2/27 10:20am 207 8 G 15 48° 100% - - 48° 48.2° 43.5° - - -
2/27 10:10am 203 6 G 12 48° 100% - - 48° 48.2° 43.5° - - -
2/27 10:00am 177 5 G 9 48° 100% - - 48° 48.2° 43.5° - - -
2/27 9:50am 187 5 G 11 48° 100% - - 48° 48.2° 43.5° - - -
2/27 9:40am 202 6 G 14 48° 100% - - 48° 48.2° 43.5° - - -
2/27 9:30am 174 9 G 14 48° 100% - - 48° 48.2° 43.5° - - -
2/27 9:20am 170 10 G 22 48° 100% - - 48° 47.9° 43.5° - - -
2/27 9:10am 195 9 G 15 47° 100% - - 47° 47.7° 43.5° - - -
2/27 9:00am 219 8 G 18 47° 100% - - 47° 47.7° 43.5° - - -
2/27 8:50am 235 7 G 13 47° 100% - - 47° 47.7° 43.5° - - -
2/27 8:40am 221 9 G 15 47° 100% - - 47° 47.7° 43.5° - - -
2/27 8:30am 222 5 G 16 47° 100% - - 47° 47.7° 43.5° - - -
2/27 8:20am 240 6 G 10 47° 100% - - 47° 47.7° 43.5° - - -
2/27 8:10am 240 5 G 9 47° 100% - - 47° 47.7° 43.5° - - -
2/27 8:00am 243 7 G 12 47° 100% - - 47° 47.7° 43.5° - - -
2/27 7:50am 238 3 G 7 47° 100% - - 47° 47.7° 43.5° - - -
2/27 7:40am 221 3 G 6 47° 100% - - 47° 47.5° 43.5° - - -
2/27 7:30am 252 3 G 7 47° 100% - - 47° 47.4° 43.5° - - -
2/27 7:20am 240 6 G 12 47° 100% - - 47° 47.4° 43.5° - - -
2/27 7:10am 232 5 G 13 47° 100% - - 47° 47.4° 43.5° - - -
2/27 7:00am 228 7 G 14 47° 100% - - 47° 47.4° 43.5° - - -
2/27 6:50am 217 6 G 12 47° 100% - - 47° 47.4° 43.5° - - -
2/27 6:40am 221 5 G 9 47° 100% - - 47° 47.4° 43.5° - - -
2/27 6:30am 212 6 G 12 47° 100% - - 47° 47.4° 43.5° - - -
2/27 6:20am 219 6 G 12 47° 100% - - 47° 47.4° 43.5° - - -
2/27 6:10am 218 5 G 9 47° 100% - - 47° 47.4° 43.5° - - -
2/27 6:00am 223 4 G 12 47° 100% - - 47° 47.3° 43.5° - - -
2/27 5:50am 212 6 G 12 47° 100% - - 47° 47.3° 43.5° - - -
2/27 5:40am 209 6 G 12 47° 100% - - 47° 47.2° 43.5° - - -
2/27 5:30am 202 5 G 12 47° 100% - - 47° 47.2° 43.5° - - -
2/27 5:20am 216 7 G 12 47° 100% - - 47° 47.2° 43.5° - - -
2/27 5:10am 211 7 G 13 47° 100% - - 47° 47.1° 43.5° - - -
2/27 5:00am 207 6 G 12 47° 100% - - 47° 47° 43.5° - - -
2/27 4:50am 206 5 G 12 47° 100% - - 47° 46.7° 43.5° - - -
2/27 4:40am 212 4 G 10 46° 100% - - 46° 46.5° 43.5° - - -
2/27 4:30am 212 2 G 5 46° 100% - - 46° 46.4° 43.5° - - -
2/27 4:20am 227 3 G 7 46° 100% - - 46° 46.2° 43.5° - - -
2/27 4:10am 229 3 G 7 46° 100% - - 46° 46.1° 43.5° - - -
2/27 4:00am 227 2 G 5 46° 100% - - 46° 45.9° 43.5° - - -
2/27 3:50am 236 2 G 5 46° 100% - - 46° 45.8° 43.5° - - -
2/27 3:40am 237 3 G 6 46° 100% - - 46° 45.7° 43.5° - - -
2/27 3:30am 254 2 G 6 46° 100% - - 46° 45.7° 43.5° - - -
2/27 3:20am 251 2 G 5 45° 100% - - 45° 45.7° 43.5° - - -
2/27 3:10am 258 2 G 4 45° 100% - - 45° 45.6° 43.5° - - -
2/27 3:00am 264 2 G 6 45° 100% - - 45° 45.4° 43.5° - - -
2/27 2:50am 268 1 G 4 45° 100% - - 45° 45.3° 43.5° - - -
2/27 2:40am 268 2 G 6 45° 100% - - 45° 45.3° 43.5° - - -
2/27 2:30am 247 3 G 7 45° 100% - - 45° 45.2° 43.5° - - -
2/27 2:20am 234 4 G 9 45° 100% - - 45° 45.1° 43.5° - - -
2/27 2:10am 234 5 G 9 45° 100% - - 45° 45° 43.5° - - -
2/27 2:00am 236 5 G 9 45° 100% - - 45° 45° 43.5° - - -
2/27 1:50am 244 5 G 9 45° 100% - - 45° 44.9° 43.5° - - -
2/27 1:40am 261 4 G 9 44° 100% - - 44° 44.7° 43.5° - - -
2/27 1:30am 255 4 G 6 44° 100% - - 44° 44.6° 43.5° - - -
2/27 1:20am 260 4 G 7 44° 100% - - 44° 44.5° 43.5° - - -
2/27 1:10am 265 4 G 7 44° 100% - - 44° 44.5° 43.5° - - -
2/27 1:00am 257 6 G 11 44° 100% - - 44° 44.5° 43.5° - - -
2/27 12:50am 261 5 G 10 44° 100% - - 44° 44.4° 43.5° - - -
2/27 12:40am 251 5 G 12 44° 100% - - 44° 44.3° 43.5° - - -
2/27 12:30am 255 6 G 11 44° 100% - - 44° 44.1° 43.5° - - -
2/27 12:20am 255 5 G 9 44° 100% - - 44° 43.9° 43.5° - - -
2/27 12:10am 259 6 G 10 44° 100% - - 44° 43.9° 43.5° - - -
2/27 12:00am 270 6 G 12 43° 100% - - 43° 44.9° 38.5° - - -
2/26 11:50pm 272 5 G 9 43° 100% - - 43° 44.9° 38.5° - - -
2/26 11:40pm 269 6 G 9 43° 100% - - 43° 44.9° 38.5° - - -
2/26 11:30pm 267 7 G 13 43° 100% - - 43° 44.9° 38.5° - - -
2/26 11:20pm 270 7 G 13 43° 100% - - 43° 44.9° 38.5° - - -
2/26 11:10pm 268 6 G 11 43° 100% - - 43° 44.9° 38.5° - - -
2/26 11:00pm 265 6 G 11 43° 100% - - 43° 44.9° 38.5° - - -
2/26 10:50pm 267 6 G 10 43° 100% - - 43° 44.9° 38.5° - - -
2/26 10:40pm 272 5 G 9 42° 100% - - 42° 44.9° 38.5° - - -
2/26 10:30pm 273 5 G 10 42° 100% - - 42° 44.9° 38.5° - - -
2/26 10:20pm 271 7 G 12 42° 100% - - 42° 44.9° 38.5° - - -
2/26 10:10pm 275 7 G 13 42° 100% - - 42° 44.9° 38.5° - - -
2/26 10:00pm 279 6 G 11 42° 100% - - 42° 44.9° 38.5° - - -
2/26 9:50pm 276 5 G 11 42° 100% - - 42° 44.9° 38.5° - - -
2/26 9:40pm 278 4 G 7 42° 100% - - 42° 44.9° 38.5° - - -
2/26 9:30pm 278 4 G 10 42° 100% - - 42° 44.9° 38.5° - - -
2/26 9:20pm 277 5 G 10 42° 100% - - 42° 44.9° 38.5° - - -
2/26 9:10pm 278 5 G 9 42° 100% - - 42° 44.9° 38.5° - - -
2/26 9:00pm 275 6 G 11 42° 100% - - 42° 44.9° 38.5° - - -
2/26 8:50pm 265 8 G 15 42° 100% - - 42° 44.9° 38.5° - - -
2/26 8:40pm 266 9 G 18 42° 100% - - 42° 44.9° 38.5° - - -
2/26 8:30pm 257 11 G 17 42° 100% - - 42° 44.9° 38.5° - - -
2/26 8:20pm 268 9 G 19 42° 100% - - 42° 44.9° 38.5° - - -
2/26 8:10pm 260 10 G 18 42° 99% - - 42° 44.9° 38.5° - - -
2/26 8:00pm 265 7 G 15 42° 100% - - 42° 44.9° 38.5° - - -
2/26 7:50pm 264 8 G 13 42° 100% - - 42° 44.9° 38.5° - - -
2/26 7:40pm 266 8 G 17 42° 95% - - 41° 44.9° 38.5° - - -
2/26 7:30pm 265 7 G 14 42° 96% - - 41° 44.9° 38.5° - - -
2/26 7:20pm 269 4 G 8 42° 95% - - 41° 44.9° 38.5° - - -
2/26 7:10pm 292 2 G 9 42° 96% - - 41° 44.9° 38.5° - - -
2/26 7:00pm 276 4 G 10 42° 99% - - 42° 44.9° 38.5° - - -
2/26 6:50pm 275 5 G 9 42° 99% - - 42° 44.9° 38.5° - - -
2/26 6:40pm 272 5 G 14 42° 94% - - 41° 44.9° 38.5° - - -
2/26 6:30pm 271 6 G 12 42° 91% - - 40° 44.9° 38.5° - - -
2/26 6:20pm 265 8 G 14 42° 89% - - 39° 44.9° 38.5° - - -
2/26 6:10pm 266 8 G 17 42° 85% - - 38° 44.9° 38.5° - - -
2/26 6:00pm 253 8 G 16 43° 83% - - 38° 44.9° 38.5° - - -
2/26 5:50pm 253 10 G 20 43° 81% - - 38° 44.9° 38.5° - - -
2/26 5:40pm 255 10 G 19 43° 84% - - 38° 44.9° 38.5° - - -
2/26 5:30pm 253 9 G 20 43° 84% - - 39° 44.9° 38.5° - - -
2/26 5:20pm 248 9 G 17 43° 84% - - 39° 44.9° 38.5° - - -
2/26 5:10pm 254 8 G 16 44° 86% - - 40° 44.9° 38.5° - - -
2/26 5:00pm 257 8 G 13 44° 85% - - 40° 44.9° 38.5° - - -